AirNav   Textron
 
 647 users online  

WV20 Wetzel County Hospital Heliport
New Martinsville, West Virginia, USA

GOING TO NEW MARTINSVILLE?


FAA INFORMATION EFFECTIVE 20 JULY 2017

Location

FAA Identifier: WV20
Lat/Long: 39-40-52.2800N / 080-50-55.3100W
39-40.871333N / 080-50.921833W
39.6811889 / -80.8486972
(estimated)
Elevation: 689 ft. / 210 m (estimated)
Variation: 07W (1990)
From city: 3 miles N of NEW MARTINSVILLE, WV
Time zone: UTC -4 (UTC -5 during Standard Time)
Zip code: 26624

Heliport Operations

Heliport use: Private use, MEDICAL USE ONLY.
Activation date: 03/1992
Control tower: no
ARTCC: INDIANAPOLIS CENTER
FSS: ELKINS FLIGHT SERVICE STATION [703-724-4288]
Attendance: CONTINUOUS
Wind indicator: lighted
Segmented circle: no
Lights: FOR PERIMETER LGTS CALL 304-455-8100.
Beacon: white-green-yellow (heliport)
FOR ROTG BCN CALL 304-455-8100.

Heliport Communications

WX AWOS-3 at MPG (13 nm NE): 119.05 (304-845-2959)

Nearby radio navigation aids

VOR radial/distance  VOR name  Freq  Var
AIRr191/20.2BELLAIRE VOR/DME117.1007W
JPUr062/28.3PARKERSBURG VORTAC108.6003W
HLGr207/37.0WHEELING VOR/DME112.2007W
CKBr318/37.2CLARKSBURG VOR/DME112.6004W

 
NDB name  Hdg/Dist  Freq  Var  ID
CADIZ174/34.223907WCFX -.-. ..-. -..-

Heliport Services

Runway Information

Helipad H1

Dimensions: 20 x 20 ft. / 6 x 6 m
Surface: concrete
Runway edge lights: PERIMETER LGTS.
Latitude: 39-40.871333N
Longitude: 080-50.921833W
Elevation: 689.0 ft.
Traffic pattern: leftleft

Heliport Ownership and Management from official FAA records

Ownership: Publicly-owned
Owner: WETZEL COUNTY HOSPITAL ASSOCIATION
3 EAST BENJAMIN DRIVE
NEW MARTINSVILLE, WV 26155
Phone 304-455-8000
Manager: TOM LANGSDORF
3 EAST BENJAMIN DRIVE
NEW MARTINSVILLE, WV 26155
Phone 304-455-8000
MICHAEL CONNERS 304-551-4083

Heliport Operational Statistics

Aircraft based on the field: 1
Helicopters: 1
    

Additional Remarks

HELIPAD OPERATOR AIR EVAC LIFETEAM (BASE78)
A52-H1 BLDG 175 FT WEST OF PAD; 20 FT PLINES 300 FT WEST OF PAD; 10 TREES 300 FT WEST OF PAD.

Instrument Procedures

There are no published instrument procedures at WV20.

Some nearby airports with instrument procedures:

KMPG - Marshall County Airport (13 nm NE)
4G5 - Monroe County Airport (13 nm NW)
2P7 - Alderman Airport (23 nm N)
6G5 - Barnesville-Bradfield Airport (25 nm NW)
KHLG - Wheeling Ohio County Airport (31 nm N)
 
Loc | Ops | Rwys | IFR | FBO | Links
Com | Nav | Svcs | Stats | Notes


 
Area around WV20 (Wetzel County Hospital Heliport)
 
Road maps at: MapQuest Bing Google
 
Aerial photo
No photo
 
Sectional chart

 
Airport distance calculator
Flying to Wetzel County Hospital Heliport? Find the distance to fly.

From to WV20

Sunrise and sunset
Times for 25-Jul-2017
 Local
(UTC-4)
 Zulu
(UTC)
Morning civil twilight05:4609:46
Sunrise06:1710:17
Sunset20:4300:43
Evening civil twilight21:1301:13

Current date and time
Zulu (UTC)  25-Jul-2017 04:45:02
Local (UTC-4)  25-Jul-2017 00:45:02
 
METAR
KHLG 
31nm N 
250353Z AUTO 30005KT 10SM FEW041 17/14 A3007 RMK AO2 SLP178 T01670139
KPKB 
33nm SW 
250353Z AUTO 33004KT 10SM CLR 19/16 A3009 RMK AO2 SLP183 T01890156
KCKB 
37nm SE 
250353Z AUTO 35003KT 10SM OVC035 20/16 A3006 RMK AO2 SLP163 T02000156
KAFJ 
37nm NE 
250435Z AUTO 00000KT 10SM BKN041 17/14 A3008 RMK AO1
KCDI 
38nm NW 
250433Z AUTO 00000KT 10SM CLR 15/15 A3010 RMK AO2 T01500151
KMGW 
43nm E 
250353Z AUTO 00000KT 10SM BKN041 19/14 A3007 RMK AO2 SLP172 T01940139
KW22 
49nm SE 
250435Z AUTO 36005KT 10SM BKN025 OVC037 19/16 A3008 RMK AO2
TAF
KHLG 
31nm N 
242020Z 2420/2518 32011G20KT P6SM SCT035 FM250300 31007KT P6SM BKN035 FM251100 31004KT 6SM BR SCT040 FM251400 31009KT P6SM BKN040 FM251700 31010KT P6SM SCT045
KPKB 
33nm SW 
250254Z 2503/2524 29005KT P6SM SCT035 FM250800 VRB03KT 5SM BR SCT001 FM250900 VRB03KT 1/4SM FG VV001 FM251300 VRB03KT P6SM BKN015 FM251400 01003KT P6SM BKN025
KCKB 
37nm SE 
250254Z 2503/2524 32005KT P6SM SCT035 FM250800 VRB03KT 2SM BR BKN001 FM251300 VRB03KT 5SM BR BKN005 FM251400 32003KT 5SM BR BKN025
NOTAMs
Click for the latest NOTAMs
NOTAMs are issued by the DoD/FAA and will open in a separate window not controlled by AirNav.

 

 
 

Would you like to see your business listed on this page?

 If your business provides an interesting product or service to pilots, flight crews, aircraft, or users of the Wetzel County Hospital Heliport, you should consider listing it here.  To start the listing process, click on the button below
 
Add a business
 

Other Pages about Wetzel County Hospital Heliport

Update a link
 
Copyright © AirNav, LLC. All rights reserved. Privacy Policy  Contact